KBTR/BTR METAR and TAF weather

Enter ICAO airport designator
Station Type Date Time Source
KBTR METAR 2020/09/18 15:53 UTC NOAA

KBTR 181553Z 01006KT 10SM CLR 26/18 A2999 RMK AO2 SLP156 T02610183


Station Type Date Time Source
KBTR Decoded METAR 2020/09/18 15:53 UTC NOAA

BATON ROUGE METRO RYAN FIELD, LA, United States (KBTR) 30-32N 91-09W 21M
Sep 18, 2020 - 11:53 AM EDT / 2020.09.18 1553 UTC
Wind: from the N (010 degrees) at 7 MPH (6 KT):0
Visibility: 10 mile(s):0
Sky conditions: clear
Temperature: 79.0 F (26.1 C)
Dew Point: 64.9 F (18.3 C)
Relative Humidity: 62%
Pressure (altimeter): 29.99 in. Hg (1015 hPa)
ob: KBTR 181553Z 01006KT 10SM CLR 26/18 A2999 RMK AO2 SLP156 T02610183
cycle: 16

Station Type Date Time Source
KBTR TAF 2020/09/18 12:42 UTC NOAA

TAF KBTR 181138Z 1812/1912 02006KT P6SM SCT100 OVC250
FM182300 04005KT P6SM SCT045 OVC200
FM190300 VRB03KT P6SM OVC140
FM190800 05006KT P6SM OVC040

Example: see airport list